Eye, United Kingdom
Current Conditions -  °F | °C
As of 9:50 PM on Tuesday 21 Oct 2014 (Local Time) from EGUW Reporting Station
Clear Clear  
Wind Chill: 37°   Ceiling: Unl
Heat Index: 45°   Visibility: 6mi
Dew Point: 36°   Wind: 20mph
Humidity: 71%   Direction: 290°WNW
Pressure: 29.94"   Gusts: NA
Location:  52.32°N, 1.15°E
Report Text: EGUW 212050Z 29017KT CAVOK 07/02 Q1014 BLU NOSIG
Loading
Personal Weather Stations






























Interactive Weather Map
Tropical Storm Tracking
New forecast layout! Learn more

10-Day Weather Forecast

Advertisements
Track Severe Weather on mobile